Time;durP1;ratioP1;P1;durP2;ratioP2;P2;SDS_P1;SDS_P2;PMS_P1;PMS_P2;Temp;Humidity;BMP_temperature;BMP_pressure;BME280_temperature;BME280_humidity;BME280_pressure;Samples;Min_cycle;Max_cycle;Signal;HPM_P1;HPM_P2
2022/06/28 00:01:48;;;;;;;9.27;1.80;;;;;;;22.07;57.90;99785.09;5019614;28;20647;-81
2022/06/28 00:04:21;;;;;;;4.37;1.83;;;;;;;22.25;56.25;99789.13;5020955;28;20293;-80
2022/06/28 00:06:52;;;;;;;4.20;1.70;;;;;;;22.43;56.41;99802.06;5020938;28;20241;-81
2022/06/28 00:09:23;;;;;;;4.10;1.63;;;;;;;22.33;54.63;99770.78;5020839;28;20058;-81
2022/06/28 00:11:54;;;;;;;8.23;1.90;;;;;;;22.37;57.12;99750.97;5011565;28;20054;-81
2022/06/28 00:17:11;;;;;;;5.47;1.50;;;;;;;23.03;54.88;99758.53;4981610;28;20210;-81
2022/06/28 00:19:44;;;;;;;2.90;1.30;;;;;;;23.40;53.05;99798.34;5024060;28;20060;-81
2022/06/28 00:22:15;;;;;;;4.90;1.80;;;;;;;23.11;53.05;99774.75;5015552;28;20322;-81
2022/06/28 00:24:46;;;;;;;49.57;4.67;;;;;;;22.90;54.95;99757.72;5006007;28;20054;-81
2022/06/28 00:27:19;;;;;;;12.80;1.80;;;;;;;22.76;55.76;99783.56;5015950;28;20045;-81
2022/06/28 00:29:50;;;;;;;3.10;1.60;;;;;;;22.32;56.34;99723.84;5024015;28;20070;-81
2022/06/28 00:36:22;;;;;;;3.97;1.55;;;;;;;22.36;56.65;99783.84;4963798;29;20122;-82
2022/06/28 00:42:41;;;;;;;10.40;1.87;;;;;;;22.14;57.96;99727.81;4963491;29;20054;-83
2022/06/28 00:45:43;;;;;;;4.90;1.60;;;;;;;22.83;58.27;99795.47;4985520;28;20337;-83
2022/06/28 00:48:36;;;;;;;3.10;1.50;;;;;;;22.37;56.48;99742.97;5020316;28;20240;-81
2022/06/28 00:51:16;;;;;;;183.53;11.03;;;;;;;22.40;57.47;99713.47;5017963;28;20053;-84
2022/06/28 00:53:55;;;;;;;;;;;;;;;23.07;57.64;99794.63;5011990;28;20234;-82
2022/06/28 00:56:26;;;;;;;2.90;1.30;;;;;;;22.87;56.76;99752.66;5015709;28;19984;-82
2022/06/28 00:58:57;;;;;;;5.30;1.50;;;;;;;22.67;55.99;99703.53;5016884;28;20049;-82
2022/06/28 01:01:35;;;;;;;7.60;1.90;;;;;;;22.90;56.68;99720.44;5016186;28;20056;-82
2022/06/28 01:04:07;;;;;;;3.63;1.43;;;;;;;23.24;55.24;99734.72;5015393;28;20068;-82
2022/06/28 01:06:41;;;;;;;3.17;1.50;;;;;;;23.03;54.62;99759.38;5015433;28;20105;-82
2022/06/28 01:09:12;;;;;;;1.50;1.33;;;;;;;23.23;55.67;99784.50;5014238;28;20046;-82
2022/06/28 01:11:43;;;;;;;7.53;1.37;;;;;;;23.14;56.11;99763.91;5007378;28;20042;-82
2022/06/28 01:14:15;;;;;;;54.00;8.43;;;;;;;22.62;55.75;99674.59;5018384;28;20341;-82
2022/06/28 01:16:45;;;;;;;6.20;1.93;;;;;;;22.81;55.83;99722.84;5009584;28;20053;-82
2022/06/28 01:19:17;;;;;;;4.07;1.40;;;;;;;23.27;55.35;99770.94;5009692;28;20129;-81
2022/06/28 01:21:51;;;;;;;23.00;2.40;;;;;;;23.38;55.01;99768.28;5002793;28;20046;-82
2022/06/28 01:24:24;;;;;;;20.73;2.40;;;;;;;23.67;54.11;99784.69;5010572;28;20468;-82
2022/06/28 01:26:56;;;;;;;2.57;1.47;;;;;;;24.01;53.13;99793.56;5009009;28;20296;-83
2022/06/28 01:29:28;;;;;;;4.70;1.40;;;;;;;24.24;52.59;99777.53;5009847;28;20127;-81
2022/06/28 01:31:59;;;;;;;7.87;1.70;;;;;;;24.33;51.90;99792.78;5014165;28;20051;-81
2022/06/28 01:34:30;;;;;;;4.60;1.47;;;;;;;24.04;50.04;99755.97;5006484;28;20105;-81
2022/06/28 01:37:01;;;;;;;2.37;1.53;;;;;;;24.45;52.04;99802.50;5009989;28;20273;-80
2022/06/28 01:39:34;;;;;;;2.97;1.60;;;;;;;24.40;50.63;99803.81;5005277;28;20066;-80
2022/06/28 01:42:06;;;;;;;18.33;2.53;;;;;;;24.05;52.78;99724.78;5014178;28;20077;-80
2022/06/28 01:44:37;;;;;;;7.63;2.10;;;;;;;24.40;52.58;99756.59;5018390;28;20056;-82
2022/06/28 01:47:09;;;;;;;2.17;1.50;;;;;;;24.09;49.07;99728.91;5010159;28;20222;-80
2022/06/28 01:49:40;;;;;;;8.90;4.00;;;;;;;23.59;52.56;99742.63;5011302;28;20058;-81
2022/06/28 01:52:11;;;;;;;8.00;1.63;;;;;;;23.67;53.00;99774.03;5008432;28;20110;-82
2022/06/28 01:54:47;;;;;;;18.27;2.57;;;;;;;23.40;54.39;99734.38;5011045;28;20057;-79
2022/06/28 01:57:18;;;;;;;3.83;1.67;;;;;;;23.76;55.02;99778.63;5015938;28;20081;-82
2022/06/28 01:59:49;;;;;;;5.30;1.60;;;;;;;23.88;53.90;99771.50;5017183;28;20046;-80
2022/06/28 02:02:19;;;;;;;27.87;2.37;;;;;;;24.27;54.82;99793.28;5021071;28;20050;-79
2022/06/28 02:04:53;;;;;;;34.60;3.67;;;;;;;24.27;52.71;99740.75;5012633;28;20042;-82
2022/06/28 02:07:24;;;;;;;8.53;1.80;;;;;;;25.09;51.89;99779.44;5005446;28;20245;-80
2022/06/28 02:09:57;;;;;;;3.60;1.67;;;;;;;25.31;50.55;99741.88;5005813;28;20117;-80
2022/06/28 02:12:30;;;;;;;4.17;1.30;;;;;;;25.61;48.68;99770.47;5006628;28;20085;-83
2022/06/28 02:15:01;;;;;;;6.40;1.30;;;;;;;25.70;49.64;99736.72;5016614;28;20045;-81
2022/06/28 02:17:32;;;;;;;2.13;1.23;;;;;;;25.69;45.98;99761.78;5017861;28;20364;-80
2022/06/28 02:20:03;;;;;;;21.30;2.20;;;;;;;25.28;47.59;99763.53;5006528;28;20122;-79
2022/06/28 02:22:34;;;;;;;3.23;1.40;;;;;;;25.28;49.51;99768.88;5020918;28;20309;-79
2022/06/28 02:25:08;;;;;;;6.33;1.60;;;;;;;25.05;49.92;99751.25;5007806;28;20046;-78
2022/06/28 02:27:39;;;;;;;4.83;1.50;;;;;;;24.58;50.31;99670.63;5017240;28;20046;-79
2022/06/28 02:30:16;;;;;;;3.97;1.57;;;;;;;24.89;49.44;99671.53;5016778;28;20054;-82
2022/06/28 02:32:47;;;;;;;7.10;1.47;;;;;;;25.50;49.63;99698.31;5017889;28;20110;-80
2022/06/28 02:40:53;;;;;;;6.03;1.73;;;;;;;26.05;47.48;99735.44;5018517;28;20237;-79
2022/06/28 02:43:24;;;;;;;10.20;1.97;;;;;;;26.11;46.66;99734.91;5011958;28;20112;-79
2022/06/28 02:45:55;;;;;;;2.33;1.40;;;;;;;25.85;48.04;99669.44;5010153;28;20050;-79
2022/06/28 02:48:33;;;;;;;2.55;1.70;;;;;;;26.25;48.09;99710.38;5013469;28;20153;-80
2022/06/28 02:51:04;;;;;;;7.20;1.93;;;;;;;26.31;46.50;99726.88;5012482;28;20082;-80
2022/06/28 02:53:34;;;;;;;1.70;1.50;;;;;;;26.36;48.97;99684.44;5009724;28;20236;-81
2022/06/28 02:56:11;;;;;;;4.50;1.67;;;;;;;26.62;47.97;99712.41;5009372;28;20047;-84
2022/06/28 02:58:42;;;;;;;2.23;1.40;;;;;;;26.34;46.80;99716.75;5011546;28;20042;-80
2022/06/28 03:01:13;;;;;;;10.90;2.13;;;;;;;25.80;47.48;99685.91;5014952;28;20352;-79
2022/06/28 03:03:44;;;;;;;1.67;1.20;;;;;;;25.18;47.10;99655.69;5009399;28;20081;-80
2022/06/28 03:06:15;;;;;;;6.50;1.60;;;;;;;25.34;47.81;99698.84;5013406;28;20117;-79
2022/06/28 03:08:45;;;;;;;3.23;1.40;;;;;;;24.61;48.25;99620.47;5006990;28;20057;-79
2022/06/28 03:11:18;;;;;;;3.07;1.73;;;;;;;24.44;48.12;99698.47;5011312;28;20109;-80
2022/06/28 03:13:49;;;;;;;9.33;1.77;;;;;;;23.81;49.91;99621.75;5009381;28;20084;-80
2022/06/28 03:16:19;;;;;;;4.70;1.60;;;;;;;24.00;50.14;99638.91;5017376;28;20054;-79
2022/06/28 03:18:50;;;;;;;7.57;1.70;;;;;;;24.09;50.39;99684.38;5012907;28;20045;-80
2022/06/28 03:21:21;;;;;;;5.03;1.60;;;;;;;23.79;50.41;99661.03;5006239;28;20057;-81
2022/06/28 03:25:00;;;;;;;;;;;;;;;;;;;;;
2022/06/28 03:31:23;;;;;;;9.33;2.03;;;;;;;24.24;51.59;99644.06;4832775;29;20060;-81
2022/06/28 03:33:54;;;;;;;5.53;1.70;;;;;;;24.16;49.89;99651.81;4906723;29;20058;-81
2022/06/28 03:36:25;;;;;;;3.33;1.30;;;;;;;24.33;51.28;99676.13;4915507;29;20059;-81
2022/06/28 03:39:50;;;;;;;;;;;;;;;;;;;;;
2022/06/28 03:42:44;;;;;;;9.88;1.70;;;;;;;24.68;52.93;99652.81;4854877;29;20064;-81
2022/06/28 03:45:15;;;;;;;8.27;1.80;;;;;;;24.61;50.62;99630.28;4946811;28;20122;-81
2022/06/28 03:47:47;;;;;;;9.80;1.80;;;;;;;24.67;51.59;99656.50;4987575;28;20346;-81
2022/06/28 03:50:19;;;;;;;6.53;1.83;;;;;;;24.80;52.81;99665.16;4997301;28;20061;-80
2022/06/28 03:52:50;;;;;;;15.40;2.57;;;;;;;24.81;52.02;99674.88;5003191;28;20054;-80
2022/06/28 03:55:21;;;;;;;11.63;2.43;;;;;;;24.79;50.98;99675.94;4994457;28;20135;-81
2022/06/28 03:57:52;;;;;;;7.23;1.70;;;;;;;24.68;51.89;99632.31;4991186;28;20109;-80
2022/06/28 04:00:23;;;;;;;4.73;2.00;;;;;;;24.73;51.59;99613.22;4992781;28;20053;-80
2022/06/28 04:02:55;;;;;;;4.80;2.20;;;;;;;24.89;50.49;99677.72;4993789;28;20381;-80
2022/06/28 04:05:26;;;;;;;16.57;1.90;;;;;;;24.73;50.36;99658.63;4988892;28;20413;-81
2022/06/28 04:07:57;;;;;;;6.53;1.90;;;;;;;24.53;51.12;99655.81;4993255;28;20054;-81
2022/06/28 04:10:28;;;;;;;3.83;1.70;;;;;;;24.13;50.10;99636.06;4992783;28;20053;-81
2022/06/28 04:12:59;;;;;;;3.33;1.90;;;;;;;24.36;50.13;99668.84;4991821;28;20080;-81
2022/06/28 04:15:29;;;;;;;3.43;1.60;;;;;;;24.37;50.96;99682.09;5000675;28;20106;-80
2022/06/28 04:18:02;;;;;;;8.13;1.80;;;;;;;24.30;52.31;99675.56;4997597;28;20112;-81
2022/06/28 04:20:33;;;;;;;5.57;1.80;;;;;;;24.35;51.94;99662.69;4990055;28;20050;-80
2022/06/28 04:23:04;;;;;;;5.90;1.87;;;;;;;24.04;51.48;99627.88;4992632;28;20046;-80
2022/06/28 04:25:35;;;;;;;3.97;1.80;;;;;;;24.03;52.88;99619.97;5003455;28;20058;-80
2022/06/28 04:28:06;;;;;;;7.60;2.10;;;;;;;24.31;53.12;99669.22;5001292;28;20095;-80
2022/06/28 04:30:40;;;;;;;4.60;1.97;;;;;;;24.16;52.82;99617.97;5017909;28;20065;-81
2022/06/28 04:33:12;;;;;;;7.77;1.80;;;;;;;23.98;52.15;99612.34;5016155;28;20411;-81
2022/06/28 04:35:43;;;;;;;4.97;1.70;;;;;;;24.19;51.62;99651.56;5010901;28;20049;-81
2022/06/28 04:38:14;;;;;;;32.93;3.00;;;;;;;24.11;52.97;99649.53;5012377;28;20052;-81
2022/06/28 04:40:45;;;;;;;11.63;2.30;;;;;;;24.24;52.34;99654.72;5019555;28;20065;-81
2022/06/28 04:43:15;;;;;;;6.63;2.13;;;;;;;24.08;52.61;99650.63;5009052;28;20041;-81
2022/06/28 04:45:47;;;;;;;9.90;2.10;;;;;;;23.29;52.24;99566.41;5015536;28;20245;-80
2022/06/28 04:48:19;;;;;;;5.10;2.00;;;;;;;23.52;54.50;99594.75;5016806;28;20046;-80
2022/06/28 04:50:50;;;;;;;3.80;1.73;;;;;;;23.69;53.33;99588.03;5013765;28;20105;-81
2022/06/28 04:53:21;;;;;;;5.60;1.90;;;;;;;23.66;51.84;99622.94;5020525;28;20301;-80
2022/06/28 04:55:59;;;;;;;13.90;2.40;;;;;;;23.59;54.63;99595.94;5010082;28;20050;-80
2022/06/28 04:58:29;;;;;;;6.93;1.87;;;;;;;23.86;54.65;99632.03;5017596;28;20049;-81
2022/06/28 05:01:00;;;;;;;5.70;2.23;;;;;;;23.55;54.51;99594.50;5016795;28;20058;-81
2022/06/28 05:03:49;;;;;;;6.33;2.20;;;;;;;23.36;53.53;99568.44;5007957;28;20062;-80
2022/06/28 05:06:19;;;;;;;2.57;1.70;;;;;;;23.56;53.49;99601.50;5012436;28;20050;-81
2022/06/28 05:08:56;;;;;;;20.73;2.73;;;;;;;23.32;54.22;99566.19;5009996;28;20362;-81
2022/06/28 05:11:47;;;;;;;4.53;1.90;;;;;;;23.65;52.68;99627.44;5010944;28;20053;-80
2022/06/28 05:14:18;;;;;;;5.83;1.80;;;;;;;23.47;53.72;99623.59;5007491;28;20117;-81
2022/06/28 05:16:49;;;;;;;4.57;1.50;;;;;;;22.79;54.36;99570.28;5014904;28;20210;-80
2022/06/28 05:19:21;;;;;;;9.70;2.10;;;;;;;22.54;56.08;99562.50;5017786;28;20052;-80
2022/06/28 05:21:52;;;;;;;4.63;1.50;;;;;;;22.79;55.70;99612.06;5011907;28;20066;-80
2022/06/28 05:24:23;;;;;;;10.67;1.70;;;;;;;22.38;56.49;99533.56;5019035;28;20125;-80
2022/06/28 05:26:54;;;;;;;5.93;1.70;;;;;;;22.73;56.44;99576.06;5007085;28;20077;-79
2022/06/28 05:29:25;;;;;;;8.53;2.10;;;;;;;22.53;56.29;99542.16;5019256;28;20057;-80
2022/06/28 05:31:56;;;;;;;6.20;1.80;;;;;;;22.52;56.17;99543.16;5011817;28;20121;-80
2022/06/28 05:34:29;;;;;;;7.80;2.00;;;;;;;22.92;56.49;99606.63;5014048;28;20057;-80
2022/06/28 05:37:00;;;;;;;7.57;2.00;;;;;;;22.43;56.87;99586.44;5007346;28;20114;-80
2022/06/28 05:39:31;;;;;;;7.70;1.90;;;;;;;22.50;58.30;99616.97;5012855;28;20049;-80
2022/06/28 05:42:02;;;;;;;5.17;1.80;;;;;;;22.15;58.01;99564.56;5012829;28;20049;-80
2022/06/28 05:44:33;;;;;;;12.03;2.70;;;;;;;22.15;58.58;99565.41;5011669;28;20050;-82
2022/06/28 05:47:04;;;;;;;10.77;2.27;;;;;;;21.90;58.92;99561.06;5015993;28;20113;-80
2022/06/28 05:49:36;;;;;;;5.80;1.80;;;;;;;21.96;58.42;99589.03;5011490;28;20049;-80
2022/06/28 05:52:08;;;;;;;7.13;2.50;;;;;;;21.74;59.16;99557.84;5006055;28;20058;-80
2022/06/28 05:54:39;;;;;;;25.03;2.10;;;;;;;21.87;59.40;99593.22;5021326;28;20300;-80
2022/06/28 05:57:10;;;;;;;10.33;1.70;;;;;;;21.60;60.34;99573.97;5005224;28;20325;-80
2022/06/28 05:59:41;;;;;;;26.07;3.03;;;;;;;21.47;61.16;99553.63;5009484;28;20289;-80
2022/06/28 06:02:11;;;;;;;10.90;2.17;;;;;;;21.68;60.02;99609.66;5015186;28;20289;-80
2022/06/28 06:04:44;;;;;;;10.03;1.70;;;;;;;21.31;60.38;99560.94;5016902;28;20523;-79
2022/06/28 06:07:15;;;;;;;14.53;2.20;;;;;;;21.30;61.10;99556.63;5019543;28;20297;-80
2022/06/28 06:09:45;;;;;;;8.57;1.63;;;;;;;21.22;60.94;99558.97;5003449;28;20641;-79
2022/06/28 06:12:25;;;;;;;8.77;1.80;;;;;;;21.17;61.35;99577.91;5016917;28;20305;-82
2022/06/28 06:15:00;;;;;;;6.97;1.87;;;;;;;21.01;61.76;99572.81;5019642;28;20293;-81
2022/06/28 06:17:39;;;;;;;11.37;2.33;;;;;;;20.64;62.27;99548.84;5017981;28;20289;-81
2022/06/28 06:20:13;;;;;;;8.03;2.03;;;;;;;20.99;61.59;99611.94;5020188;28;20285;-81
2022/06/28 06:23:02;;;;;;;42.07;4.43;;;;;;;20.70;62.20;99583.91;5011359;28;20605;-84
2022/06/28 06:25:36;;;;;;;17.30;2.67;;;;;;;20.36;62.51;99543.69;5021047;28;20299;-82
2022/06/28 06:28:43;;;;;;;13.30;2.77;;;;;;;20.84;63.31;99612.97;5013044;28;20517;-83
2022/06/28 06:31:17;;;;;;;23.07;2.97;;;;;;;20.30;62.93;99547.63;4944293;28;20635;-82
2022/06/28 06:34:18;;;;;;;9.97;1.90;;;;;;;20.47;62.80;99610.19;4992985;28;20308;-85
2022/06/28 06:36:51;;;;;;;21.07;2.23;;;;;;;20.58;63.83;99615.63;4952062;28;20293;-81
2022/06/28 06:40:00;;;;;;;9.20;2.10;;;;;;;20.34;63.12;99596.00;4963914;28;20328;-82
2022/06/28 06:50:38;;;;;;;5.47;1.87;;;;;;;20.33;63.84;99618.22;4840038;29;20356;-86
2022/06/28 06:53:47;;;;;;;11.17;2.20;;;;;;;20.09;64.29;99579.09;4855211;29;20643;-83
2022/06/28 06:56:44;;;;;;;8.53;1.97;;;;;;;20.44;64.54;99599.75;4979502;28;20402;-85
2022/06/28 07:04:39;;;;;;;10.90;2.57;;;;;;;20.77;63.19;99622.34;4863587;29;20451;-86
2022/06/28 07:07:12;;;;;;;14.53;1.73;;;;;;;20.24;63.32;99519.72;4921176;28;20368;-84
2022/06/28 07:09:50;;;;;;;5.90;1.90;;;;;;;20.70;63.17;99597.16;4992578;28;20294;-82
2022/06/28 07:12:38;;;;;;;9.73;2.77;;;;;;;20.54;62.76;99584.88;4991841;28;20414;-84
2022/06/28 07:15:14;;;;;;;17.50;2.20;;;;;;;20.53;62.94;99617.72;4985373;28;20506;-82
2022/06/28 07:17:54;;;;;;;7.77;2.17;;;;;;;20.49;63.66;99629.47;4991151;28;20305;-81
2022/06/28 07:20:38;;;;;;;11.17;2.17;;;;;;;20.38;64.03;99610.78;4995136;28;20596;-82
2022/06/28 07:23:26;;;;;;;11.80;2.10;;;;;;;20.19;63.92;99584.63;4993204;28;20297;-83
2022/06/28 07:25:59;;;;;;;6.72;2.20;;;;;;;20.02;64.06;99588.44;4988120;28;20285;-81
2022/06/28 07:28:32;;;;;;;22.43;3.47;;;;;;;20.06;64.14;99611.13;4988181;28;20066;-81
2022/06/28 07:31:02;;;;;;;8.10;2.00;;;;;;;19.91;63.89;99606.84;5008694;28;20474;-81
2022/06/28 07:33:33;;;;;;;19.90;3.00;;;;;;;20.06;64.68;99621.72;5008853;28;20328;-78
2022/06/28 07:36:04;;;;;;;14.57;2.70;;;;;;;19.79;64.80;99572.25;5011093;28;20384;-78
2022/06/28 07:38:35;;;;;;;25.73;3.33;;;;;;;19.99;64.79;99604.53;5010238;28;20288;-79
2022/06/28 07:41:07;;;;;;;12.43;2.07;;;;;;;19.97;64.68;99603.78;5005343;28;20298;-79
2022/06/28 07:43:38;;;;;;;4.47;1.83;;;;;;;19.93;64.51;99618.19;5013130;28;20661;-76
2022/06/28 07:46:14;;;;;;;11.60;2.30;;;;;;;19.31;65.34;99531.19;5014490;28;20592;-77
2022/06/28 07:48:45;;;;;;;6.13;1.90;;;;;;;19.75;65.74;99602.53;5006352;28;20368;-77
2022/06/28 07:54:04;;;;;;;15.57;2.37;;;;;;;19.32;66.31;99570.81;5010957;28;20384;-77
2022/06/28 07:56:37;;;;;;;9.80;2.00;;;;;;;19.21;65.99;99575.94;5005769;28;20294;-77
2022/06/28 07:59:08;;;;;;;7.53;1.80;;;;;;;19.21;66.96;99613.00;5004539;28;20335;-76
2022/06/28 08:01:38;;;;;;;23.37;2.67;;;;;;;19.17;67.39;99648.59;5009526;28;20344;-77
2022/06/28 08:04:11;;;;;;;18.57;2.23;;;;;;;18.96;67.31;99638.34;5005812;28;20300;-77
2022/06/28 08:06:43;;;;;;;12.63;2.47;;;;;;;18.57;67.54;99577.22;5013347;28;20281;-77
2022/06/28 08:09:13;;;;;;;14.67;2.67;;;;;;;18.71;68.09;99603.72;5013971;28;20312;-77
2022/06/28 08:11:46;;;;;;;11.20;2.83;;;;;;;18.88;68.88;99640.63;5008271;28;20313;-78
2022/06/28 08:14:16;;;;;;;12.80;2.37;;;;;;;18.44;68.97;99583.25;5010514;28;20327;-78
2022/06/28 08:16:47;;;;;;;12.80;2.20;;;;;;;18.13;68.92;99570.16;5002745;28;20340;-78
2022/06/28 08:19:19;;;;;;;7.20;2.00;;;;;;;18.40;69.71;99626.72;5007234;28;20299;-78
2022/06/28 08:21:50;;;;;;;7.53;1.90;;;;;;;18.34;68.91;99627.06;5006046;28;20348;-78
2022/06/28 08:24:21;;;;;;;14.07;2.20;;;;;;;17.82;69.45;99571.91;5008350;28;20301;-78
2022/06/28 08:26:53;;;;;;;16.43;2.90;;;;;;;17.59;70.03;99539.69;5002984;28;20381;-78
2022/06/28 08:29:24;;;;;;;18.50;2.67;;;;;;;18.03;70.13;99605.03;5011718;28;20304;-78
2022/06/28 08:31:55;;;;;;;9.87;2.40;;;;;;;18.02;70.37;99606.00;5014084;28;20345;-77
2022/06/28 08:34:26;;;;;;;14.67;2.67;;;;;;;18.00;70.16;99604.38;5010107;28;20308;-78
2022/06/28 08:36:57;;;;;;;10.23;2.30;;;;;;;17.45;70.02;99537.00;5011133;28;20521;-77
2022/06/28 08:39:28;;;;;;;21.63;2.97;;;;;;;17.60;69.91;99586.31;5011119;28;20297;-77
2022/06/28 08:42:03;;;;;;;12.07;2.50;;;;;;;17.48;69.76;99568.53;5021515;28;20289;-81
2022/06/28 08:44:38;;;;;;;21.10;3.53;;;;;;;17.20;70.20;99541.00;5013366;28;20364;-81
2022/06/28 08:47:14;;;;;;;17.73;4.40;;;;;;;17.51;70.37;99605.31;5021064;28;20496;-80
2022/06/28 08:49:53;;;;;;;6.53;2.20;;;;;;;17.18;70.75;99553.44;5017589;28;20302;-80
2022/06/28 08:52:27;;;;;;;5.20;1.70;;;;;;;17.50;70.94;99619.47;5012322;28;20361;-78
2022/06/28 08:54:58;;;;;;;9.53;2.40;;;;;;;17.21;71.42;99587.59;5007646;28;20357;-80
2022/06/28 08:57:32;;;;;;;6.97;2.30;;;;;;;17.09;71.08;99569.75;5021011;28;20296;-79
2022/06/28 09:00:07;;;;;;;6.00;1.90;;;;;;;17.33;71.45;99622.19;5013677;28;20305;-80
2022/06/28 09:02:38;;;;;;;5.93;2.00;;;;;;;16.91;71.29;99573.41;5014436;28;20372;-80
2022/06/28 09:05:10;;;;;;;9.40;2.30;;;;;;;17.24;71.90;99629.66;5020435;28;20293;-80
2022/06/28 09:07:41;;;;;;;7.07;2.37;;;;;;;16.85;72.02;99563.16;5009571;28;20613;-79
2022/06/28 09:10:12;;;;;;;7.30;2.20;;;;;;;16.68;72.13;99541.16;5012910;28;20289;-80
2022/06/28 09:13:13;;;;;;;4.20;2.23;;;;;;;16.20;71.94;99476.88;5016995;28;20354;-81
2022/06/28 09:15:50;;;;;;;11.57;2.47;;;;;;;16.53;72.46;99547.25;5012007;28;20476;-83
2022/06/28 09:18:22;;;;;;;4.67;2.03;;;;;;;16.41;72.74;99532.91;5013907;28;20620;-83
2022/06/28 09:20:54;;;;;;;5.07;2.20;;;;;;;16.69;73.37;99595.59;5009503;28;20340;-82
2022/06/28 09:23:28;;;;;;;13.17;3.10;;;;;;;16.55;73.79;99555.94;5007622;28;20302;-81
2022/06/28 09:28:59;;;;;;;17.10;2.90;;;;;;;16.55;73.71;99603.41;5008007;28;20336;-85
2022/06/28 09:31:35;;;;;;;6.03;2.13;;;;;;;16.43;74.04;99594.34;5010895;28;20313;-88
2022/06/28 09:34:13;;;;;;;9.00;1.97;;;;;;;16.18;73.86;99557.81;5012770;28;20305;-87
2022/06/28 09:36:58;;;;;;;8.00;2.80;;;;;;;16.13;74.05;99565.09;5013905;28;20289;-90
2022/06/28 09:39:34;;;;;;;6.70;1.97;;;;;;;16.44;74.00;99621.53;5013264;28;20306;-90
2022/06/28 09:42:14;;;;;;;24.20;2.47;;;;;;;16.46;74.34;99652.19;5013937;28;20289;-88
2022/06/28 09:44:53;;;;;;;7.73;2.23;;;;;;;16.44;74.43;99637.38;5014505;28;20294;-86
2022/06/28 09:58:46;;;;;;;19.63;3.17;;;;;;;16.28;75.13;99622.31;5033321;23;20477;-62
2022/06/28 10:01:19;;;;;;;21.33;2.93;;;;;;;16.32;74.98;99629.13;4995335;28;20609;-61
2022/06/28 10:03:51;;;;;;;12.83;2.50;;;;;;;16.29;74.57;99617.91;4994572;28;20301;-60
2022/06/28 10:06:22;;;;;;;18.87;2.63;;;;;;;16.27;75.14;99625.88;4995973;28;20349;-62
2022/06/28 10:08:52;;;;;;;15.63;2.70;;;;;;;16.24;75.07;99631.31;4995011;28;20300;-62
2022/06/28 10:11:23;;;;;;;8.57;2.37;;;;;;;16.14;75.13;99625.63;4996113;28;20377;-61
2022/06/28 10:17:11;;;;;;;7.67;2.50;;;;;;;15.98;75.62;99631.75;4981621;28;20293;-60
2022/06/28 10:19:42;;;;;;;7.97;2.20;;;;;;;15.99;75.72;99636.94;4993940;28;20329;-62
2022/06/28 10:22:14;;;;;;;6.40;2.27;;;;;;;15.94;75.84;99637.16;4995971;28;20341;-62
2022/06/28 10:24:56;;;;;;;13.67;2.57;;;;;;;15.96;76.03;99632.66;4995998;28;20380;-61
2022/06/28 10:27:28;;;;;;;12.53;2.60;;;;;;;15.98;76.00;99634.38;4996051;28;20357;-61
2022/06/28 10:30:26;;;;;;;18.17;2.10;;;;;;;15.91;76.00;99636.47;4995488;28;20336;-61
2022/06/28 10:33:04;;;;;;;25.77;2.47;;;;;;;15.86;75.87;99641.09;4952433;28;20381;-60
2022/06/28 10:36:22;;;;;;;19.97;2.97;;;;;;;15.84;76.29;99635.88;4995848;28;20327;-60
2022/06/28 10:39:27;;;;;;;7.37;2.40;;;;;;;15.85;76.72;99640.25;4989468;28;20299;-62
2022/06/28 10:42:12;;;;;;;7.90;3.93;;;;;;;15.89;76.59;99633.03;4986127;28;20309;-61
2022/06/28 10:44:48;;;;;;;25.57;7.83;;;;;;;15.93;76.94;99632.81;4995629;28;20376;-62
2022/06/28 10:47:19;;;;;;;19.87;7.30;;;;;;;15.84;77.07;99617.44;4995613;28;20608;-62
2022/06/28 10:49:59;;;;;;;17.00;4.67;;;;;;;15.87;77.07;99633.09;4995983;28;20278;-60
2022/06/28 10:52:34;;;;;;;8.37;3.83;;;;;;;15.80;77.49;99631.72;4995740;28;20344;-61
2022/06/28 10:55:25;;;;;;;6.27;3.23;;;;;;;15.82;77.38;99639.53;4995626;28;20329;-62
2022/06/28 10:58:10;;;;;;;7.03;3.30;;;;;;;15.80;77.43;99636.97;4991713;28;20297;-61
2022/06/28 11:00:54;;;;;;;7.30;2.87;;;;;;;15.84;78.01;99649.06;4994912;28;20361;-61
2022/06/28 11:03:24;;;;;;;52.87;5.93;;;;;;;15.81;78.44;99649.22;4995595;28;20282;-62
2022/06/28 11:05:58;;;;;;;11.30;3.57;;;;;;;15.61;79.17;99610.63;4995754;28;20428;-61
2022/06/28 11:08:58;;;;;;;10.33;3.57;;;;;;;15.78;78.83;99637.97;4995746;28;20374;-60
2022/06/28 11:11:34;;;;;;;10.67;3.47;;;;;;;15.71;79.33;99642.69;4993531;28;20373;-60
2022/06/28 11:14:30;;;;;;;23.83;4.20;;;;;;;15.77;79.34;99652.91;4994665;28;20298;-61
2022/06/28 11:17:16;;;;;;;9.03;2.70;;;;;;;15.70;79.27;99636.56;4994845;28;20476;-63
2022/06/28 11:19:55;;;;;;;6.13;2.23;;;;;;;15.58;78.76;99631.00;4994292;28;20477;-63
2022/06/28 11:22:29;;;;;;;8.93;2.83;;;;;;;15.57;78.75;99634.53;4991618;28;20459;-60
2022/06/28 11:25:01;;;;;;;5.47;2.10;;;;;;;15.45;78.65;99621.03;4994645;28;20117;-62
2022/06/28 11:27:31;;;;;;;6.23;2.90;;;;;;;15.09;79.32;99577.03;4993829;28;20277;-62
2022/06/28 11:30:08;;;;;;;12.63;3.37;;;;;;;15.32;79.46;99606.72;4993870;28;20612;-60
2022/06/28 11:32:40;;;;;;;13.70;6.87;;;;;;;15.34;79.59;99611.91;4993913;28;20543;-61
2022/06/28 11:35:12;;;;;;;14.63;4.40;;;;;;;15.23;79.39;99599.25;4993719;28;20779;-60
2022/06/28 11:37:56;;;;;;;7.00;2.70;;;;;;;14.81;79.83;99572.19;4993784;28;20284;-60
2022/06/28 11:40:29;;;;;;;7.80;2.40;;;;;;;14.88;80.90;99606.97;4994628;28;20396;-61
2022/06/28 11:43:04;;;;;;;6.37;2.70;;;;;;;14.80;81.67;99602.06;4994987;28;20293;-63
2022/06/28 11:45:38;;;;;;;8.60;5.00;;;;;;;14.65;81.77;99590.44;4994988;28;20286;-60
2022/06/28 11:48:12;;;;;;;7.63;2.80;;;;;;;14.53;82.27;99604.13;4994882;28;20720;-62
2022/06/28 11:50:44;;;;;;;6.00;2.80;;;;;;;14.52;82.87;99597.09;4993845;28;20330;-63
2022/06/28 11:53:17;;;;;;;7.30;2.77;;;;;;;14.53;82.99;99598.84;4995021;28;20292;-62
2022/06/28 11:55:49;;;;;;;8.73;3.67;;;;;;;14.55;83.03;99597.03;4995041;28;20355;-63
2022/06/28 11:58:22;;;;;;;12.15;3.42;;;;;;;14.56;82.85;99598.72;4994647;28;20054;-61
2022/06/28 12:01:07;;;;;;;9.37;3.43;;;;;;;14.51;82.72;99589.28;4994742;28;20117;-60
2022/06/28 12:03:55;;;;;;;7.90;3.43;;;;;;;14.04;82.74;99506.31;4994515;28;20298;-62
2022/06/28 12:06:29;;;;;;;17.73;3.85;;;;;;;14.17;82.58;99538.16;4994538;28;20727;-61
2022/06/28 12:09:03;;;;;;;17.43;6.23;;;;;;;14.34;82.63;99576.88;4994724;28;20062;-61
2022/06/28 12:11:36;;;;;;;17.58;6.80;;;;;;;14.29;82.75;99578.84;4994580;28;20495;-62
2022/06/28 12:14:09;;;;;;;24.98;5.45;;;;;;;14.27;83.06;99576.28;4998240;28;20156;-60
2022/06/28 12:16:43;;;;;;;19.63;4.87;;;;;;;14.16;82.93;99563.59;4998441;28;20152;-60
2022/06/28 12:19:16;;;;;;;14.63;3.47;;;;;;;14.24;83.12;99582.50;4998709;28;20304;-61
2022/06/28 12:22:04;;;;;;;8.00;3.50;;;;;;;14.14;83.17;99548.81;4998883;28;20293;-60
2022/06/28 12:24:46;;;;;;;7.60;2.77;;;;;;;14.09;83.50;99562.16;4998276;28;20056;-60
2022/06/28 12:27:22;;;;;;;20.80;2.97;;;;;;;14.05;83.30;99580.72;4998172;28;20344;-62
2022/06/28 12:29:53;;;;;;;15.83;3.10;;;;;;;14.06;83.65;99583.28;4998475;28;20105;-61
2022/06/28 12:32:24;;;;;;;12.32;3.35;;;;;;;14.08;83.87;99586.72;4998357;28;20293;-63
2022/06/28 12:35:15;;;;;;;23.65;2.97;;;;;;;14.10;83.97;99576.97;4998545;28;20120;-60
2022/06/28 12:37:46;;;;;;;10.10;2.70;;;;;;;14.09;84.09;99572.66;4998205;28;20290;-62
2022/06/28 12:40:19;;;;;;;11.55;2.60;;;;;;;14.03;84.38;99562.41;4997908;28;20082;-62
2022/06/28 12:42:50;;;;;;;10.20;3.30;;;;;;;14.06;84.38;99562.28;4998169;28;20062;-62
2022/06/28 12:45:20;;;;;;;8.38;2.95;;;;;;;14.09;84.74;99572.66;4996252;28;20368;-63
2022/06/28 12:47:51;;;;;;;10.55;3.20;;;;;;;14.15;84.78;99572.41;4998519;28;20054;-61
2022/06/28 12:50:22;;;;;;;12.48;3.35;;;;;;;14.15;84.48;99561.91;4997698;28;20054;-61
2022/06/28 12:52:53;;;;;;;8.10;3.38;;;;;;;14.10;84.40;99563.84;4997790;28;20069;-62
2022/06/28 12:55:25;;;;;;;10.93;2.95;;;;;;;14.15;84.77;99561.91;4997745;28;20058;-61
2022/06/28 12:57:56;;;;;;;12.20;3.40;;;;;;;14.23;85.11;99572.94;4997911;28;20058;-61
2022/06/28 13:00:26;;;;;;;6.90;2.75;;;;;;;14.33;84.90;99580.44;4996848;28;20070;-61
2022/06/28 13:02:57;;;;;;;11.05;3.13;;;;;;;14.40;84.80;99571.34;4996676;28;20057;-62
2022/06/28 13:05:27;;;;;;;10.95;3.20;;;;;;;14.45;84.84;99569.38;4996766;28;20065;-62